Ault, Minnesota
Current Conditions -  °F | °C
As of 1:54 AM on Sunday 26 Oct 2014 (Local Time) from KTWM Reporting Station
Clear Clear  
Wind Chill: 38°   Ceiling: Unl
Heat Index: 41°   Visibility: 10mi
Dew Point: 18°   Wind: 5mph
Humidity: 39%   Direction: 300°WNW
Pressure: 29.95"   Gusts: NA
Location:  47.3998°N, 91.9141°W
Report Text: KTWM 260654Z AUTO 30004KT 10SM CLR 05/M08 A2995 RMK AO2
Loading
Personal Weather Stations






























Interactive Weather Map New forecast layout! Learn more

10-Day Weather Forecast

Advertisements
Track Severe Weather on mobile